sensor_id;sensor_type;location;lat;lon;timestamp;temperature;humidity
36322;DHT22;23564;48.290;11.460;2023-11-21T00:00:24;6.90;63.60
36322;DHT22;23564;48.290;11.460;2023-11-21T00:02:49;6.90;63.90
36322;DHT22;23564;48.290;11.460;2023-11-21T00:05:15;6.90;65.00
36322;DHT22;23564;48.290;11.460;2023-11-21T00:07:41;6.90;65.60
36322;DHT22;23564;48.290;11.460;2023-11-21T00:10:08;6.90;68.60
36322;DHT22;23564;48.290;11.460;2023-11-21T00:12:34;6.90;69.10
36322;DHT22;23564;48.290;11.460;2023-11-21T00:15:00;6.90;69.30
36322;DHT22;23564;48.290;11.460;2023-11-21T00:17:27;7.00;69.70
36322;DHT22;23564;48.290;11.460;2023-11-21T00:19:52;7.00;68.50
36322;DHT22;23564;48.290;11.460;2023-11-21T00:22:18;7.00;70.70
36322;DHT22;23564;48.290;11.460;2023-11-21T00:24:44;7.00;70.80
36322;DHT22;23564;48.290;11.460;2023-11-21T00:27:10;7.00;69.80
36322;DHT22;23564;48.290;11.460;2023-11-21T00:29:35;7.00;68.40
36322;DHT22;23564;48.290;11.460;2023-11-21T00:32:01;7.10;70.50
36322;DHT22;23564;48.290;11.460;2023-11-21T00:34:27;7.00;72.60
36322;DHT22;23564;48.290;11.460;2023-11-21T00:36:52;7.00;75.40
36322;DHT22;23564;48.290;11.460;2023-11-21T00:39:18;7.00;73.60
36322;DHT22;23564;48.290;11.460;2023-11-21T00:41:43;7.00;73.90
36322;DHT22;23564;48.290;11.460;2023-11-21T00:44:10;7.00;74.20
36322;DHT22;23564;48.290;11.460;2023-11-21T00:46:36;7.10;72.50
36322;DHT22;23564;48.290;11.460;2023-11-21T00:49:02;7.00;67.40
36322;DHT22;23564;48.290;11.460;2023-11-21T00:51:29;7.00;65.30
36322;DHT22;23564;48.290;11.460;2023-11-21T00:53:55;7.00;57.70
36322;DHT22;23564;48.290;11.460;2023-11-21T00:56:21;7.10;53.00
36322;DHT22;23564;48.290;11.460;2023-11-21T00:58:47;7.20;52.50
36322;DHT22;23564;48.290;11.460;2023-11-21T01:01:15;7.20;40.90
36322;DHT22;23564;48.290;11.460;2023-11-21T01:03:41;7.20;33.80
36322;DHT22;23564;48.290;11.460;2023-11-21T01:06:07;7.20;37.00
36322;DHT22;23564;48.290;11.460;2023-11-21T01:08:33;7.20;33.80
36322;DHT22;23564;48.290;11.460;2023-11-21T01:10:59;7.20;29.70
36322;DHT22;23564;48.290;11.460;2023-11-21T01:13:25;7.20;25.50
36322;DHT22;23564;48.290;11.460;2023-11-21T01:15:55;7.20;25.30
36322;DHT22;23564;48.290;11.460;2023-11-21T01:18:21;7.20;26.90
36322;DHT22;23564;48.290;11.460;2023-11-21T01:20:47;7.20;30.40
36322;DHT22;23564;48.290;11.460;2023-11-21T01:23:13;7.20;21.40
36322;DHT22;23564;48.290;11.460;2023-11-21T01:25:39;7.20;24.80
36322;DHT22;23564;48.290;11.460;2023-11-21T01:28:04;7.30;28.30
36322;DHT22;23564;48.290;11.460;2023-11-21T01:30:30;7.30;28.90
36322;DHT22;23564;48.290;11.460;2023-11-21T01:32:58;7.30;32.70
36322;DHT22;23564;48.290;11.460;2023-11-21T01:35:23;7.30;36.20
36322;DHT22;23564;48.290;11.460;2023-11-21T01:37:49;7.30;40.70
36322;DHT22;23564;48.290;11.460;2023-11-21T01:40:14;7.30;47.60
36322;DHT22;23564;48.290;11.460;2023-11-21T01:42:41;7.30;48.80
36322;DHT22;23564;48.290;11.460;2023-11-21T01:45:09;7.30;50.50
36322;DHT22;23564;48.290;11.460;2023-11-21T01:47:35;7.30;52.70
36322;DHT22;23564;48.290;11.460;2023-11-21T01:50:02;7.30;56.90
36322;DHT22;23564;48.290;11.460;2023-11-21T01:52:30;7.30;57.70
36322;DHT22;23564;48.290;11.460;2023-11-21T01:54:57;7.20;58.50
36322;DHT22;23564;48.290;11.460;2023-11-21T01:57:23;7.20;62.10
36322;DHT22;23564;48.290;11.460;2023-11-21T01:59:49;7.20;61.80
36322;DHT22;23564;48.290;11.460;2023-11-21T02:02:15;7.20;62.80
36322;DHT22;23564;48.290;11.460;2023-11-21T02:04:41;7.20;62.50
36322;DHT22;23564;48.290;11.460;2023-11-21T02:07:06;7.20;53.40
36322;DHT22;23564;48.290;11.460;2023-11-21T02:09:32;7.20;58.20
36322;DHT22;23564;48.290;11.460;2023-11-21T02:12:04;7.20;58.20
36322;DHT22;23564;48.290;11.460;2023-11-21T02:14:30;7.20;58.90
36322;DHT22;23564;48.290;11.460;2023-11-21T02:16:56;7.20;58.20
36322;DHT22;23564;48.290;11.460;2023-11-21T02:19:23;7.10;66.80
36322;DHT22;23564;48.290;11.460;2023-11-21T02:21:54;7.10;70.40
36322;DHT22;23564;48.290;11.460;2023-11-21T02:24:22;7.10;71.40
36322;DHT22;23564;48.290;11.460;2023-11-21T02:26:51;7.10;71.00
36322;DHT22;23564;48.290;11.460;2023-11-21T02:29:20;7.00;70.40
36322;DHT22;23564;48.290;11.460;2023-11-21T02:31:53;7.00;74.20
36322;DHT22;23564;48.290;11.460;2023-11-21T02:34:20;7.00;76.30
36322;DHT22;23564;48.290;11.460;2023-11-21T02:36:47;7.00;78.70
36322;DHT22;23564;48.290;11.460;2023-11-21T02:39:15;7.00;81.80
36322;DHT22;23564;48.290;11.460;2023-11-21T02:41:42;7.00;81.20
36322;DHT22;23564;48.290;11.460;2023-11-21T02:44:08;7.00;80.80
36322;DHT22;23564;48.290;11.460;2023-11-21T02:46:34;7.00;83.20
36322;DHT22;23564;48.290;11.460;2023-11-21T02:49:03;7.00;84.40
36322;DHT22;23564;48.290;11.460;2023-11-21T02:51:31;7.00;85.30
36322;DHT22;23564;48.290;11.460;2023-11-21T02:53:57;7.00;86.70
36322;DHT22;23564;48.290;11.460;2023-11-21T02:56:26;7.00;83.50
36322;DHT22;23564;48.290;11.460;2023-11-21T02:58:54;7.00;84.90
36322;DHT22;23564;48.290;11.460;2023-11-21T03:01:20;7.00;83.80
36322;DHT22;23564;48.290;11.460;2023-11-21T03:03:46;7.00;83.20
36322;DHT22;23564;48.290;11.460;2023-11-21T03:06:19;7.00;81.00
36322;DHT22;23564;48.290;11.460;2023-11-21T03:08:45;7.00;79.10
36322;DHT22;23564;48.290;11.460;2023-11-21T03:11:11;7.00;79.80
36322;DHT22;23564;48.290;11.460;2023-11-21T03:13:41;7.00;78.50
36322;DHT22;23564;48.290;11.460;2023-11-21T03:16:09;7.10;80.40
36322;DHT22;23564;48.290;11.460;2023-11-21T03:18:34;7.10;79.50
36322;DHT22;23564;48.290;11.460;2023-11-21T03:21:00;7.10;80.30
36322;DHT22;23564;48.290;11.460;2023-11-21T03:23:25;7.10;79.60
36322;DHT22;23564;48.290;11.460;2023-11-21T03:25:51;7.10;80.80
36322;DHT22;23564;48.290;11.460;2023-11-21T03:28:16;7.10;82.10
36322;DHT22;23564;48.290;11.460;2023-11-21T03:30:42;7.20;81.40
36322;DHT22;23564;48.290;11.460;2023-11-21T03:33:08;7.20;81.30
36322;DHT22;23564;48.290;11.460;2023-11-21T03:35:33;7.20;81.40
36322;DHT22;23564;48.290;11.460;2023-11-21T03:37:59;7.20;82.40
36322;DHT22;23564;48.290;11.460;2023-11-21T03:40:24;7.20;82.20
36322;DHT22;23564;48.290;11.460;2023-11-21T03:42:50;7.20;82.50
36322;DHT22;23564;48.290;11.460;2023-11-21T03:45:16;7.20;81.90
36322;DHT22;23564;48.290;11.460;2023-11-21T03:47:42;7.10;82.30
36322;DHT22;23564;48.290;11.460;2023-11-21T03:50:08;7.20;82.60
36322;DHT22;23564;48.290;11.460;2023-11-21T03:52:34;7.10;83.70
36322;DHT22;23564;48.290;11.460;2023-11-21T03:55:01;7.10;83.90
36322;DHT22;23564;48.290;11.460;2023-11-21T03:57:26;7.10;83.90
36322;DHT22;23564;48.290;11.460;2023-11-21T03:59:53;7.10;83.60
36322;DHT22;23564;48.290;11.460;2023-11-21T04:02:19;7.10;82.90
36322;DHT22;23564;48.290;11.460;2023-11-21T04:04:45;6.90;79.90
36322;DHT22;23564;48.290;11.460;2023-11-21T04:07:10;6.80;82.50
36322;DHT22;23564;48.290;11.460;2023-11-21T04:09:36;6.80;84.30
36322;DHT22;23564;48.290;11.460;2023-11-21T04:12:02;6.80;82.70
36322;DHT22;23564;48.290;11.460;2023-11-21T04:14:28;6.70;82.90
36322;DHT22;23564;48.290;11.460;2023-11-21T04:16:54;6.60;83.80
36322;DHT22;23564;48.290;11.460;2023-11-21T04:19:19;6.60;84.50
36322;DHT22;23564;48.290;11.460;2023-11-21T04:21:46;6.60;84.60
36322;DHT22;23564;48.290;11.460;2023-11-21T04:24:11;6.60;84.90
36322;DHT22;23564;48.290;11.460;2023-11-21T04:26:37;6.60;84.60
36322;DHT22;23564;48.290;11.460;2023-11-21T04:29:03;6.60;83.90
36322;DHT22;23564;48.290;11.460;2023-11-21T04:31:30;6.60;83.60
36322;DHT22;23564;48.290;11.460;2023-11-21T04:33:56;6.60;83.20
36322;DHT22;23564;48.290;11.460;2023-11-21T04:36:21;6.50;81.00
36322;DHT22;23564;48.290;11.460;2023-11-21T04:38:47;6.50;80.30
36322;DHT22;23564;48.290;11.460;2023-11-21T04:41:12;6.50;80.40
36322;DHT22;23564;48.290;11.460;2023-11-21T04:43:38;6.50;80.30
36322;DHT22;23564;48.290;11.460;2023-11-21T04:46:04;6.60;80.40
36322;DHT22;23564;48.290;11.460;2023-11-21T04:48:29;6.60;77.30
36322;DHT22;23564;48.290;11.460;2023-11-21T04:50:55;6.60;78.40
36322;DHT22;23564;48.290;11.460;2023-11-21T04:53:20;6.60;77.80
36322;DHT22;23564;48.290;11.460;2023-11-21T04:55:46;6.60;76.70
36322;DHT22;23564;48.290;11.460;2023-11-21T04:58:12;6.60;74.30
36322;DHT22;23564;48.290;11.460;2023-11-21T05:00:38;6.60;74.20
36322;DHT22;23564;48.290;11.460;2023-11-21T05:03:04;6.60;77.40
36322;DHT22;23564;48.290;11.460;2023-11-21T05:05:30;6.60;77.70
36322;DHT22;23564;48.290;11.460;2023-11-21T05:07:56;6.60;76.50
36322;DHT22;23564;48.290;11.460;2023-11-21T05:10:22;6.60;76.30
36322;DHT22;23564;48.290;11.460;2023-11-21T05:12:48;6.50;75.80
36322;DHT22;23564;48.290;11.460;2023-11-21T05:15:16;6.50;73.80
36322;DHT22;23564;48.290;11.460;2023-11-21T05:17:43;6.50;73.20
36322;DHT22;23564;48.290;11.460;2023-11-21T05:20:15;6.50;73.50
36322;DHT22;23564;48.290;11.460;2023-11-21T05:22:47;6.50;74.60
36322;DHT22;23564;48.290;11.460;2023-11-21T05:25:14;6.40;73.60
36322;DHT22;23564;48.290;11.460;2023-11-21T05:27:39;6.40;71.80
36322;DHT22;23564;48.290;11.460;2023-11-21T05:30:06;6.40;72.50
36322;DHT22;23564;48.290;11.460;2023-11-21T05:32:32;6.30;72.80
36322;DHT22;23564;48.290;11.460;2023-11-21T05:34:58;6.30;77.30
36322;DHT22;23564;48.290;11.460;2023-11-21T05:37:24;6.30;80.50
36322;DHT22;23564;48.290;11.460;2023-11-21T05:39:52;6.30;82.00
36322;DHT22;23564;48.290;11.460;2023-11-21T05:42:18;6.30;82.00
36322;DHT22;23564;48.290;11.460;2023-11-21T05:44:43;6.30;83.00
36322;DHT22;23564;48.290;11.460;2023-11-21T05:47:10;6.30;81.50
36322;DHT22;23564;48.290;11.460;2023-11-21T05:49:36;6.30;83.10
36322;DHT22;23564;48.290;11.460;2023-11-21T05:52:02;6.30;82.80
36322;DHT22;23564;48.290;11.460;2023-11-21T05:54:28;6.30;82.10
36322;DHT22;23564;48.290;11.460;2023-11-21T05:56:54;6.30;83.90
36322;DHT22;23564;48.290;11.460;2023-11-21T05:59:19;6.30;82.70
36322;DHT22;23564;48.290;11.460;2023-11-21T06:01:45;6.30;83.70
36322;DHT22;23564;48.290;11.460;2023-11-21T06:04:11;6.30;82.60
36322;DHT22;23564;48.290;11.460;2023-11-21T06:06:38;6.30;80.20
36322;DHT22;23564;48.290;11.460;2023-11-21T06:09:04;6.30;80.60
36322;DHT22;23564;48.290;11.460;2023-11-21T06:11:31;6.30;80.80
36322;DHT22;23564;48.290;11.460;2023-11-21T06:13:57;6.30;79.70
36322;DHT22;23564;48.290;11.460;2023-11-21T06:16:23;6.20;76.90
36322;DHT22;23564;48.290;11.460;2023-11-21T06:18:49;6.20;76.70
36322;DHT22;23564;48.290;11.460;2023-11-21T06:21:15;6.10;75.30
36322;DHT22;23564;48.290;11.460;2023-11-21T06:23:42;6.10;76.50
36322;DHT22;23564;48.290;11.460;2023-11-21T06:26:07;6.10;77.90
36322;DHT22;23564;48.290;11.460;2023-11-21T06:28:35;6.00;74.30
36322;DHT22;23564;48.290;11.460;2023-11-21T06:31:01;6.00;74.10
36322;DHT22;23564;48.290;11.460;2023-11-21T06:33:31;6.00;72.80
36322;DHT22;23564;48.290;11.460;2023-11-21T06:35:57;6.00;70.90
36322;DHT22;23564;48.290;11.460;2023-11-21T06:38:23;5.90;69.00
36322;DHT22;23564;48.290;11.460;2023-11-21T06:40:48;5.90;67.90
36322;DHT22;23564;48.290;11.460;2023-11-21T06:43:14;5.90;71.10
36322;DHT22;23564;48.290;11.460;2023-11-21T06:45:40;6.00;71.70
36322;DHT22;23564;48.290;11.460;2023-11-21T06:48:06;6.00;70.20
36322;DHT22;23564;48.290;11.460;2023-11-21T06:50:31;6.10;73.30
36322;DHT22;23564;48.290;11.460;2023-11-21T06:52:57;6.10;66.90
36322;DHT22;23564;48.290;11.460;2023-11-21T06:55:22;6.20;66.40
36322;DHT22;23564;48.290;11.460;2023-11-21T06:57:48;6.30;66.40
36322;DHT22;23564;48.290;11.460;2023-11-21T07:00:16;6.40;65.50
36322;DHT22;23564;48.290;11.460;2023-11-21T07:02:43;6.40;62.50
36322;DHT22;23564;48.290;11.460;2023-11-21T07:05:09;6.40;58.60
36322;DHT22;23564;48.290;11.460;2023-11-21T07:07:35;6.40;56.30
36322;DHT22;23564;48.290;11.460;2023-11-21T07:10:02;6.40;58.60
36322;DHT22;23564;48.290;11.460;2023-11-21T07:12:31;6.40;57.10
36322;DHT22;23564;48.290;11.460;2023-11-21T07:14:58;6.40;59.60
36322;DHT22;23564;48.290;11.460;2023-11-21T07:17:23;6.40;60.50
36322;DHT22;23564;48.290;11.460;2023-11-21T07:19:49;6.40;57.00
36322;DHT22;23564;48.290;11.460;2023-11-21T07:22:15;6.40;55.80
36322;DHT22;23564;48.290;11.460;2023-11-21T07:24:48;6.50;54.40
36322;DHT22;23564;48.290;11.460;2023-11-21T07:27:15;6.50;52.40
36322;DHT22;23564;48.290;11.460;2023-11-21T07:29:41;6.60;47.90
36322;DHT22;23564;48.290;11.460;2023-11-21T07:32:06;6.70;47.80
36322;DHT22;23564;48.290;11.460;2023-11-21T07:34:34;6.70;48.40
36322;DHT22;23564;48.290;11.460;2023-11-21T07:37:00;6.80;46.90
36322;DHT22;23564;48.290;11.460;2023-11-21T07:39:26;6.90;46.00
36322;DHT22;23564;48.290;11.460;2023-11-21T07:41:52;6.90;40.40
36322;DHT22;23564;48.290;11.460;2023-11-21T07:44:18;7.00;35.00
36322;DHT22;23564;48.290;11.460;2023-11-21T07:46:45;7.10;31.30
36322;DHT22;23564;48.290;11.460;2023-11-21T07:49:11;7.10;27.00
36322;DHT22;23564;48.290;11.460;2023-11-21T07:51:36;7.20;25.10
36322;DHT22;23564;48.290;11.460;2023-11-21T07:54:02;7.20;29.20
36322;DHT22;23564;48.290;11.460;2023-11-21T07:56:28;7.20;26.30
36322;DHT22;23564;48.290;11.460;2023-11-21T07:58:53;7.20;21.10
36322;DHT22;23564;48.290;11.460;2023-11-21T08:01:19;7.20;21.60
36322;DHT22;23564;48.290;11.460;2023-11-21T08:03:45;7.20;18.80
36322;DHT22;23564;48.290;11.460;2023-11-21T08:06:10;7.20;24.00
36322;DHT22;23564;48.290;11.460;2023-11-21T08:08:37;7.10;17.00
36322;DHT22;23564;48.290;11.460;2023-11-21T08:11:03;7.10;16.20
36322;DHT22;23564;48.290;11.460;2023-11-21T08:13:29;7.10;19.90
36322;DHT22;23564;48.290;11.460;2023-11-21T08:15:58;7.00;19.30
36322;DHT22;23564;48.290;11.460;2023-11-21T08:18:27;6.90;20.00
36322;DHT22;23564;48.290;11.460;2023-11-21T08:20:54;6.90;26.30
36322;DHT22;23564;48.290;11.460;2023-11-21T08:23:20;6.90;27.80
36322;DHT22;23564;48.290;11.460;2023-11-21T08:25:46;6.80;28.70
36322;DHT22;23564;48.290;11.460;2023-11-21T08:28:12;6.80;30.10
36322;DHT22;23564;48.290;11.460;2023-11-21T08:30:39;6.80;31.10
36322;DHT22;23564;48.290;11.460;2023-11-21T08:33:07;6.80;29.60
36322;DHT22;23564;48.290;11.460;2023-11-21T08:35:33;6.80;29.20
36322;DHT22;23564;48.290;11.460;2023-11-21T08:37:59;6.80;31.70
36322;DHT22;23564;48.290;11.460;2023-11-21T08:40:25;6.80;31.10
36322;DHT22;23564;48.290;11.460;2023-11-21T08:42:51;6.90;34.00
36322;DHT22;23564;48.290;11.460;2023-11-21T08:45:18;7.00;38.70
36322;DHT22;23564;48.290;11.460;2023-11-21T08:47:44;7.10;36.20
36322;DHT22;23564;48.290;11.460;2023-11-21T08:50:10;7.20;30.80
36322;DHT22;23564;48.290;11.460;2023-11-21T08:52:38;7.30;32.70
36322;DHT22;23564;48.290;11.460;2023-11-21T08:55:04;7.40;25.20
36322;DHT22;23564;48.290;11.460;2023-11-21T08:57:36;7.60;24.60
36322;DHT22;23564;48.290;11.460;2023-11-21T09:00:06;7.70;22.40
36322;DHT22;23564;48.290;11.460;2023-11-21T09:02:33;7.70;19.40
36322;DHT22;23564;48.290;11.460;2023-11-21T09:05:05;7.70;17.60
36322;DHT22;23564;48.290;11.460;2023-11-21T09:07:31;7.80;16.90
36322;DHT22;23564;48.290;11.460;2023-11-21T09:09:57;7.80;17.40
36322;DHT22;23564;48.290;11.460;2023-11-21T09:12:23;7.90;14.20
36322;DHT22;23564;48.290;11.460;2023-11-21T09:14:50;7.80;8.80
36322;DHT22;23564;48.290;11.460;2023-11-21T09:17:16;7.90;16.30
36322;DHT22;23564;48.290;11.460;2023-11-21T09:19:41;7.90;15.10
36322;DHT22;23564;48.290;11.460;2023-11-21T09:22:10;7.90;8.40
36322;DHT22;23564;48.290;11.460;2023-11-21T09:24:36;7.90;11.30
36322;DHT22;23564;48.290;11.460;2023-11-21T09:27:03;7.90;8.90
36322;DHT22;23564;48.290;11.460;2023-11-21T09:29:29;7.90;12.70
36322;DHT22;23564;48.290;11.460;2023-11-21T09:31:55;7.90;8.80
36322;DHT22;23564;48.290;11.460;2023-11-21T09:34:21;7.80;8.50
36322;DHT22;23564;48.290;11.460;2023-11-21T09:36:47;7.80;5.00
36322;DHT22;23564;48.290;11.460;2023-11-21T09:39:14;7.80;8.00
36322;DHT22;23564;48.290;11.460;2023-11-21T09:41:44;7.70;12.20
36322;DHT22;23564;48.290;11.460;2023-11-21T09:44:13;7.60;15.20
36322;DHT22;23564;48.290;11.460;2023-11-21T09:46:42;7.70;21.80
36322;DHT22;23564;48.290;11.460;2023-11-21T09:49:11;7.70;24.00
36322;DHT22;23564;48.290;11.460;2023-11-21T09:51:47;7.70;23.30
36322;DHT22;23564;48.290;11.460;2023-11-21T09:54:14;7.70;22.70
36322;DHT22;23564;48.290;11.460;2023-11-21T09:56:41;7.80;23.40
36322;DHT22;23564;48.290;11.460;2023-11-21T09:59:12;7.80;26.30
36322;DHT22;23564;48.290;11.460;2023-11-21T10:01:38;7.80;25.80
36322;DHT22;23564;48.290;11.460;2023-11-21T10:04:06;7.90;23.10
36322;DHT22;23564;48.290;11.460;2023-11-21T10:06:40;7.90;25.00
36322;DHT22;23564;48.290;11.460;2023-11-21T10:09:12;8.00;26.60
36322;DHT22;23564;48.290;11.460;2023-11-21T10:11:40;8.10;21.50
36322;DHT22;23564;48.290;11.460;2023-11-21T10:14:08;8.20;18.80
36322;DHT22;23564;48.290;11.460;2023-11-21T10:16:36;8.30;3.00
36322;DHT22;23564;48.290;11.460;2023-11-21T10:19:04;8.30;1.30
36322;DHT22;23564;48.290;11.460;2023-11-21T10:21:32;8.30;1.50
36322;DHT22;23564;48.290;11.460;2023-11-21T10:23:58;8.40;7.90
36322;DHT22;23564;48.290;11.460;2023-11-21T10:26:26;8.60;1.00
36322;DHT22;23564;48.290;11.460;2023-11-21T10:28:57;8.70;1.00
36322;DHT22;23564;48.290;11.460;2023-11-21T10:31:23;8.90;1.00
36322;DHT22;23564;48.290;11.460;2023-11-21T10:33:51;9.00;1.00
36322;DHT22;23564;48.290;11.460;2023-11-21T10:36:27;9.20;1.00
36322;DHT22;23564;48.290;11.460;2023-11-21T10:38:53;9.20;1.00
36322;DHT22;23564;48.290;11.460;2023-11-21T10:41:20;9.30;1.00
36322;DHT22;23564;48.290;11.460;2023-11-21T10:43:46;9.40;1.00
36322;DHT22;23564;48.290;11.460;2023-11-21T10:46:13;9.40;1.00
36322;DHT22;23564;48.290;11.460;2023-11-21T10:48:44;9.50;1.00
36322;DHT22;23564;48.290;11.460;2023-11-21T10:51:09;9.50;1.00
36322;DHT22;23564;48.290;11.460;2023-11-21T10:53:41;9.50;1.00
36322;DHT22;23564;48.290;11.460;2023-11-21T10:56:08;9.50;1.00
36322;DHT22;23564;48.290;11.460;2023-11-21T10:58:35;9.40;1.00
36322;DHT22;23564;48.290;11.460;2023-11-21T11:01:02;9.40;1.00
36322;DHT22;23564;48.290;11.460;2023-11-21T11:03:31;9.30;1.00
36322;DHT22;23564;48.290;11.460;2023-11-21T11:05:59;9.30;1.00
36322;DHT22;23564;48.290;11.460;2023-11-21T11:08:26;9.20;1.00
36322;DHT22;23564;48.290;11.460;2023-11-21T11:10:53;9.20;1.00
36322;DHT22;23564;48.290;11.460;2023-11-21T11:13:19;9.20;1.00
36322;DHT22;23564;48.290;11.460;2023-11-21T11:15:48;9.20;1.00
36322;DHT22;23564;48.290;11.460;2023-11-21T11:18:14;9.20;1.00
36322;DHT22;23564;48.290;11.460;2023-11-21T11:20:43;9.20;1.00
36322;DHT22;23564;48.290;11.460;2023-11-21T11:26:12;9.30;1.00
36322;DHT22;23564;48.290;11.460;2023-11-21T11:31:40;9.30;1.00
36322;DHT22;23564;48.290;11.460;2023-11-21T11:34:29;9.20;1.00
36322;DHT22;23564;48.290;11.460;2023-11-21T11:37:01;9.10;1.00
36322;DHT22;23564;48.290;11.460;2023-11-21T11:39:41;9.10;1.00
36322;DHT22;23564;48.290;11.460;2023-11-21T11:42:11;9.10;1.00
36322;DHT22;23564;48.290;11.460;2023-11-21T11:50:09;9.20;1.00
36322;DHT22;23564;48.290;11.460;2023-11-21T11:52:48;9.30;1.00
36322;DHT22;23564;48.290;11.460;2023-11-21T11:55:17;9.30;1.00
36322;DHT22;23564;48.290;11.460;2023-11-21T11:57:47;9.40;1.00
36322;DHT22;23564;48.290;11.460;2023-11-21T12:00:18;9.50;1.00
36322;DHT22;23564;48.290;11.460;2023-11-21T12:02:53;9.50;1.00
36322;DHT22;23564;48.290;11.460;2023-11-21T12:05:22;9.50;1.00
36322;DHT22;23564;48.290;11.460;2023-11-21T12:07:53;9.50;1.00
36322;DHT22;23564;48.290;11.460;2023-11-21T12:10:24;9.60;1.00
36322;DHT22;23564;48.290;11.460;2023-11-21T12:12:57;9.50;1.00
36322;DHT22;23564;48.290;11.460;2023-11-21T12:15:24;9.50;1.00
36322;DHT22;23564;48.290;11.460;2023-11-21T12:17:51;9.40;1.00
36322;DHT22;23564;48.290;11.460;2023-11-21T12:20:24;9.40;1.00
36322;DHT22;23564;48.290;11.460;2023-11-21T12:22:51;9.50;1.00
36322;DHT22;23564;48.290;11.460;2023-11-21T12:25:18;9.50;1.00
36322;DHT22;23564;48.290;11.460;2023-11-21T12:27:49;9.60;1.00
36322;DHT22;23564;48.290;11.460;2023-11-21T12:30:16;9.70;1.00
36322;DHT22;23564;48.290;11.460;2023-11-21T12:32:43;9.70;1.00
36322;DHT22;23564;48.290;11.460;2023-11-21T12:35:12;9.70;1.00
36322;DHT22;23564;48.290;11.460;2023-11-21T12:37:38;9.70;1.00
36322;DHT22;23564;48.290;11.460;2023-11-21T12:40:07;9.70;1.00
36322;DHT22;23564;48.290;11.460;2023-11-21T12:42:39;9.70;1.00
36322;DHT22;23564;48.290;11.460;2023-11-21T12:45:21;9.70;1.00
36322;DHT22;23564;48.290;11.460;2023-11-21T12:47:51;9.70;1.00
36322;DHT22;23564;48.290;11.460;2023-11-21T12:50:21;9.70;1.00
36322;DHT22;23564;48.290;11.460;2023-11-21T12:52:52;9.70;1.00
36322;DHT22;23564;48.290;11.460;2023-11-21T12:55:22;9.60;1.00
36322;DHT22;23564;48.290;11.460;2023-11-21T12:57:49;9.60;1.00
36322;DHT22;23564;48.290;11.460;2023-11-21T13:00:26;9.60;1.00
36322;DHT22;23564;48.290;11.460;2023-11-21T13:02:57;9.50;1.00
36322;DHT22;23564;48.290;11.460;2023-11-21T13:05:27;9.50;1.00
36322;DHT22;23564;48.290;11.460;2023-11-21T13:07:54;9.40;1.00
36322;DHT22;23564;48.290;11.460;2023-11-21T13:10:24;9.40;1.00
36322;DHT22;23564;48.290;11.460;2023-11-21T13:12:52;9.30;1.00
36322;DHT22;23564;48.290;11.460;2023-11-21T13:15:18;9.10;1.00
36322;DHT22;23564;48.290;11.460;2023-11-21T13:17:44;8.90;4.00
36322;DHT22;23564;48.290;11.460;2023-11-21T13:20:11;8.80;14.10
36322;DHT22;23564;48.290;11.460;2023-11-21T13:22:54;8.70;11.90
36322;DHT22;23564;48.290;11.460;2023-11-21T13:25:24;8.50;21.00
36322;DHT22;23564;48.290;11.460;2023-11-21T13:28:00;8.50;32.30
36322;DHT22;23564;48.290;11.460;2023-11-21T13:30:28;8.50;51.70
36322;DHT22;23564;48.290;11.460;2023-11-21T13:33:06;8.40;57.10
36322;DHT22;23564;48.290;11.460;2023-11-21T13:35:34;8.40;56.50
36322;DHT22;23564;48.290;11.460;2023-11-21T13:38:07;8.30;60.10
36322;DHT22;23564;48.290;11.460;2023-11-21T13:40:34;8.30;66.80
36322;DHT22;23564;48.290;11.460;2023-11-21T13:43:05;8.30;64.80
36322;DHT22;23564;48.290;11.460;2023-11-21T13:45:34;8.30;63.80
36322;DHT22;23564;48.290;11.460;2023-11-21T13:48:00;8.30;61.30
36322;DHT22;23564;48.290;11.460;2023-11-21T13:50:26;8.30;62.30
36322;DHT22;23564;48.290;11.460;2023-11-21T13:52:58;8.20;62.40
36322;DHT22;23564;48.290;11.460;2023-11-21T13:55:28;8.30;62.00
36322;DHT22;23564;48.290;11.460;2023-11-21T13:57:54;8.30;59.10
36322;DHT22;23564;48.290;11.460;2023-11-21T14:00:19;8.30;60.00
36322;DHT22;23564;48.290;11.460;2023-11-21T14:03:03;8.20;61.40
36322;DHT22;23564;48.290;11.460;2023-11-21T14:05:34;8.20;63.60
36322;DHT22;23564;48.290;11.460;2023-11-21T14:08:02;8.20;65.10
36322;DHT22;23564;48.290;11.460;2023-11-21T14:10:31;8.10;67.20
36322;DHT22;23564;48.290;11.460;2023-11-21T14:13:09;8.20;71.10
36322;DHT22;23564;48.290;11.460;2023-11-21T14:15:39;8.20;73.50
36322;DHT22;23564;48.290;11.460;2023-11-21T14:18:08;8.30;76.00
36322;DHT22;23564;48.290;11.460;2023-11-21T14:20:36;8.40;79.20
36322;DHT22;23564;48.290;11.460;2023-11-21T14:23:03;8.50;82.20
36322;DHT22;23564;48.290;11.460;2023-11-21T14:25:31;8.50;81.70
36322;DHT22;23564;48.290;11.460;2023-11-21T14:27:58;8.60;82.10
36322;DHT22;23564;48.290;11.460;2023-11-21T14:30:24;8.60;82.40
36322;DHT22;23564;48.290;11.460;2023-11-21T14:32:50;8.60;82.30
36322;DHT22;23564;48.290;11.460;2023-11-21T14:35:16;8.60;81.90
36322;DHT22;23564;48.290;11.460;2023-11-21T14:37:43;8.60;81.00
36322;DHT22;23564;48.290;11.460;2023-11-21T14:40:09;8.60;83.00
36322;DHT22;23564;48.290;11.460;2023-11-21T14:42:35;8.60;82.80
36322;DHT22;23564;48.290;11.460;2023-11-21T14:45:03;8.60;82.80
36322;DHT22;23564;48.290;11.460;2023-11-21T14:47:32;8.60;82.60
36322;DHT22;23564;48.290;11.460;2023-11-21T14:50:02;8.60;82.20
36322;DHT22;23564;48.290;11.460;2023-11-21T14:52:49;8.60;83.60
36322;DHT22;23564;48.290;11.460;2023-11-21T14:55:25;8.60;83.10
36322;DHT22;23564;48.290;11.460;2023-11-21T14:58:09;8.60;83.80
36322;DHT22;23564;48.290;11.460;2023-11-21T15:00:39;8.50;80.60
36322;DHT22;23564;48.290;11.460;2023-11-21T15:03:11;8.50;81.40
36322;DHT22;23564;48.290;11.460;2023-11-21T15:06:06;8.40;72.10
36322;DHT22;23564;48.290;11.460;2023-11-21T15:08:49;8.20;57.80
36322;DHT22;23564;48.290;11.460;2023-11-21T15:11:21;8.20;60.40
36322;DHT22;23564;48.290;11.460;2023-11-21T15:13:52;8.10;48.90
36322;DHT22;23564;48.290;11.460;2023-11-21T15:16:20;8.10;37.60
36322;DHT22;23564;48.290;11.460;2023-11-21T15:18:46;8.00;35.30
36322;DHT22;23564;48.290;11.460;2023-11-21T15:21:24;7.90;23.80
36322;DHT22;23564;48.290;11.460;2023-11-21T15:23:53;7.80;25.80
36322;DHT22;23564;48.290;11.460;2023-11-21T15:26:19;7.70;32.80
36322;DHT22;23564;48.290;11.460;2023-11-21T15:28:44;7.70;41.90
36322;DHT22;23564;48.290;11.460;2023-11-21T15:31:10;7.70;48.00
36322;DHT22;23564;48.290;11.460;2023-11-21T15:33:36;7.60;47.20
36322;DHT22;23564;48.290;11.460;2023-11-21T15:36:03;7.60;48.90
36322;DHT22;23564;48.290;11.460;2023-11-21T15:38:29;7.60;50.70
36322;DHT22;23564;48.290;11.460;2023-11-21T15:40:56;7.50;41.30
36322;DHT22;23564;48.290;11.460;2023-11-21T15:43:24;7.50;49.60
36322;DHT22;23564;48.290;11.460;2023-11-21T15:45:50;7.50;53.40
36322;DHT22;23564;48.290;11.460;2023-11-21T15:48:15;7.50;58.50